Huvudsida
METAR-TAF:

METAR-TAF

Flygplatser :

Pago Pago International Airport

Pago Pago, Förenta staternas avlägset belägna öar

latitud: 14-20S, longitud: 170-43W, höjd: 3 m

Aktuellt väderrapport

Denna rapport gjordes för 53 minuter sedan, klockan 19:50 UTC
Vind 10 kt från ost/sydost
Temperatur 30°C
Fuktighet 75%
Tryck 1009 hPa
Sikt: 19.3 km
Spridda moln på en höjd av 2000 ft

METAR: NSTU 121950Z 11010KT 12SM SCT020 30/25 A2980 RMK SLP093 T03000254

Tid: 09:43 (20:43 UTC)

Väderprognos

Denna rapport gjordes för 3 timmar och 2 minuter sedan, klockan 17:41 UTC
Prognos gäller från 12 kl. 18 UTC till 13 kl. 18 UTC
Vind 10 kt från ost/sydost
Sikt: 10 km
Få moln på en höjd av 2000 ft
Spridda moln på en höjd av 10000 ft
Från 12 kl. 2100 UTC
Vind 10 kt från ost
Sikt: 10 km
Få moln på en höjd av 2000 ft
Spridda moln på en höjd av 4000 ft
Brutna moln på en höjd av 10000 ft

TAF: NSTU 121741Z 1218/1318 12010KT P6SM FEW020 SCT100 FM122100 08010KT P6SM FEW020 SCT040 BKN100

Aktuella väderrapporter och prognoser från 4000 flygplatser (METAR- och TAF-rapporter).

De tillgängliga stationerna syns som gula och röda prickar på kartan.

För musen över prickarna för att se namnen på stationerna.

Klicka sedan för att få väderrapporter och prognoser.

För att ändra kartan: Klicka på de gröna knapparna med ett svart kors på för att zooma in; den gröna knappen med ett streck på för att zooma ut; eller på de gröna pilarna för angränsande kartor.


METAR-TAF: